Time;durP1;ratioP1;P1;durP2;ratioP2;P2;SDS_P1;SDS_P2;PMS_P1;PMS_P2;Temp;Humidity;BMP_temperature;BMP_pressure;BME280_temperature;BME280_humidity;BME280_pressure;Samples;Min_cycle;Max_cycle;Signal;HPM_P1;HPM_P2
2023/01/31 00:02:17;;;;;;;14.10;2.40;;;4.30;99.90;;;;;;4979180;29;20479;-50
2023/01/31 00:04:45;;;;;;;8.97;2.60;;;4.30;99.90;;;;;;4978980;29;20456;-53
2023/01/31 00:07:15;;;;;;;14.00;1.83;;;4.20;99.90;;;;;;4978354;28;20475;-56
2023/01/31 00:09:43;;;;;;;8.07;2.00;;;4.20;99.90;;;;;;4978209;29;20486;-50
2023/01/31 00:12:17;;;;;;;14.17;2.10;;;4.20;99.90;;;;;;4978028;29;20448;-52
2023/01/31 00:14:45;;;;;;;3.10;1.50;;;4.20;99.90;;;;;;4978282;29;20479;-55
2023/01/31 00:17:18;;;;;;;4.00;1.73;;;4.20;99.90;;;;;;4977990;29;20432;-53
2023/01/31 00:19:45;;;;;;;3.20;1.10;;;4.30;99.90;;;;;;4978125;29;20431;-54
2023/01/31 00:22:12;;;;;;;6.70;1.30;;;4.20;99.90;;;;;;4978285;29;20444;-54
2023/01/31 00:24:39;;;;;;;6.67;1.60;;;4.20;99.90;;;;;;4978244;29;20479;-52
2023/01/31 00:27:07;;;;;;;5.13;1.87;;;4.20;99.90;;;;;;4977918;29;20566;-53
2023/01/31 00:29:34;;;;;;;4.40;1.90;;;4.20;99.90;;;;;;4978987;28;20463;-56
2023/01/31 00:32:03;;;;;;;5.03;1.73;;;4.20;99.90;;;;;;4981452;29;20431;-57
2023/01/31 00:34:34;;;;;;;12.03;1.60;;;4.20;99.90;;;;;;4982035;29;20460;-52
2023/01/31 00:37:01;;;;;;;6.30;1.57;;;4.20;99.90;;;;;;4981801;29;20440;-55
2023/01/31 00:39:28;;;;;;;6.23;2.43;;;4.20;99.90;;;;;;4981334;29;20503;-53
2023/01/31 00:41:55;;;;;;;5.33;1.10;;;4.20;99.90;;;;;;4982026;29;20462;-56
2023/01/31 00:44:22;;;;;;;1.43;1.33;;;4.10;99.90;;;;;;4982032;29;20479;-55
2023/01/31 00:46:49;;;;;;;2.73;1.37;;;4.10;99.90;;;;;;4981677;29;20478;-56
2023/01/31 00:49:19;;;;;;;8.57;2.70;;;4.10;99.90;;;;;;4982284;28;20463;-53
2023/01/31 00:51:46;;;;;;;7.30;2.33;;;4.10;99.90;;;;;;4981390;29;20468;-55
2023/01/31 00:54:13;;;;;;;5.03;1.37;;;4.10;99.90;;;;;;4981735;29;20451;-58
2023/01/31 00:56:43;;;;;;;3.47;2.57;;;4.20;99.90;;;;;;4982176;29;20428;-56
2023/01/31 00:59:10;;;;;;;4.97;1.50;;;4.10;99.90;;;;;;4981140;29;20450;-54
2023/01/31 01:01:38;;;;;;;2.40;1.00;;;4.20;99.90;;;;;;4981375;29;20459;-53
2023/01/31 01:04:05;;;;;;;5.63;1.47;;;4.20;99.90;;;;;;4981544;29;20522;-56
2023/01/31 01:06:34;;;;;;;6.20;1.73;;;4.20;99.90;;;;;;4981419;29;20463;-59
2023/01/31 01:09:01;;;;;;;16.87;2.53;;;4.20;99.90;;;;;;4981624;28;20480;-56
2023/01/31 01:11:33;;;;;;;10.73;1.90;;;4.30;99.90;;;;;;4981832;28;20436;-55
2023/01/31 01:14:01;;;;;;;4.47;1.63;;;4.30;99.90;;;;;;4981453;29;20455;-56
2023/01/31 01:16:32;;;;;;;2.47;1.40;;;4.40;99.90;;;;;;4981260;29;20474;-50
2023/01/31 01:19:01;;;;;;;4.20;1.90;;;4.40;99.90;;;;;;4981081;29;20448;-54
2023/01/31 01:21:30;;;;;;;6.50;1.30;;;4.40;99.90;;;;;;4979911;29;20463;-55
2023/01/31 01:24:00;;;;;;;3.30;1.83;;;4.50;99.90;;;;;;4980122;29;20456;-54
2023/01/31 01:26:28;;;;;;;5.80;1.00;;;4.50;99.90;;;;;;4979895;29;20420;-54
2023/01/31 01:28:57;;;;;;;5.67;0.90;;;4.50;99.90;;;;;;4979860;29;20452;-57
2023/01/31 01:31:28;;;;;;;13.53;1.63;;;4.50;99.90;;;;;;4979577;29;20487;-57
2023/01/31 01:33:58;;;;;;;10.43;1.37;;;4.50;99.90;;;;;;4979837;29;20849;-53
2023/01/31 01:36:25;;;;;;;4.40;1.70;;;4.40;99.90;;;;;;4979829;29;20443;-55
2023/01/31 01:38:54;;;;;;;12.77;2.00;;;4.50;99.90;;;;;;4979655;29;20432;-55
2023/01/31 01:41:22;;;;;;;3.90;1.80;;;4.50;99.90;;;;;;4978887;28;20480;-55
2023/01/31 01:43:53;;;;;;;2.50;1.10;;;4.50;99.90;;;;;;4979288;29;20483;-56
2023/01/31 01:46:25;;;;;;;2.93;1.30;;;4.60;99.90;;;;;;4979802;29;20455;-51
2023/01/31 01:48:57;;;;;;;8.50;1.67;;;4.50;99.90;;;;;;4979970;28;20428;-57
2023/01/31 01:51:24;;;;;;;10.07;1.73;;;4.50;99.90;;;;;;4979510;29;20397;-55
2023/01/31 01:53:56;;;;;;;2.83;0.90;;;4.50;99.90;;;;;;4979562;29;20440;-55
2023/01/31 01:56:27;;;;;;;8.40;1.30;;;4.50;99.90;;;;;;4979680;29;20498;-56
2023/01/31 01:59:00;;;;;;;16.27;1.40;;;4.40;99.90;;;;;;4979249;29;20528;-61
2023/01/31 02:01:33;;;;;;;3.67;1.63;;;4.50;99.90;;;;;;4979011;29;20428;-57
2023/01/31 02:04:00;;;;;;;9.37;2.10;;;4.50;99.90;;;;;;4978909;29;20472;-59
2023/01/31 02:06:27;;;;;;;8.23;2.10;;;4.50;99.90;;;;;;4979056;29;20428;-51
2023/01/31 02:08:55;;;;;;;7.07;3.07;;;4.50;99.90;;;;;;4979045;29;20455;-53
2023/01/31 02:11:25;;;;;;;0.90;0.70;;;4.40;99.90;;;;;;4978543;29;20455;-56
2023/01/31 02:13:57;;;;;;;3.07;1.33;;;4.40;99.90;;;;;;4978855;29;20431;-55
2023/01/31 02:16:25;;;;;;;4.23;1.40;;;4.40;99.90;;;;;;4978902;29;20468;-53
2023/01/31 02:18:52;;;;;;;6.23;1.93;;;4.50;99.90;;;;;;4979102;29;20451;-59
2023/01/31 02:21:57;;;;;;;4.50;1.80;;;4.60;99.90;;;;;;4978906;29;20448;-55
2023/01/31 02:25:15;;;;;;;6.10;1.33;;;4.60;99.90;;;;;;4964520;29;20483;-60
2023/01/31 02:28:17;;;;;;;7.30;1.90;;;4.60;99.90;;;;;;4945477;29;20434;-57
2023/01/31 02:31:11;;;;;;;1.30;0.80;;;4.50;99.90;;;;;;4979208;29;20463;-55
2023/01/31 02:33:44;;;;;;;9.80;1.37;;;4.50;99.90;;;;;;4979279;29;20435;-61
2023/01/31 02:36:24;;;;;;;7.33;2.10;;;4.50;99.90;;;;;;4979319;29;20424;-63
2023/01/31 02:38:59;;;;;;;2.60;1.10;;;4.50;99.90;;;;;;4979249;29;20439;-55
2023/01/31 02:41:32;;;;;;;5.67;1.43;;;4.50;99.90;;;;;;4978821;29;20471;-57
2023/01/31 02:47:00;;;;;;;6.97;1.67;;;4.60;99.90;;;;;;4978530;29;20474;-57
2023/01/31 02:49:38;;;;;;;9.50;1.90;;;4.60;99.90;;;;;;4979260;28;20447;-56
2023/01/31 02:52:19;;;;;;;5.30;1.30;;;4.50;99.90;;;;;;4978996;29;20459;-54
2023/01/31 02:57:45;;;;;;;3.87;1.30;;;4.40;99.90;;;;;;4979078;29;20459;-54
2023/01/31 03:00:13;;;;;;;7.60;1.70;;;4.30;99.90;;;;;;4978261;29;20483;-57
2023/01/31 03:02:40;;;;;;;14.93;2.50;;;4.20;99.90;;;;;;4979329;29;20455;-54
2023/01/31 03:05:14;;;;;;;6.03;1.37;;;4.20;99.90;;;;;;4979252;29;20502;-55
2023/01/31 03:07:44;;;;;;;4.63;1.83;;;4.10;99.90;;;;;;4979510;29;20475;-55
2023/01/31 03:10:21;;;;;;;4.50;1.10;;;4.00;99.90;;;;;;4979490;29;20440;-59
2023/01/31 03:13:00;;;;;;;2.23;2.03;;;4.00;99.90;;;;;;4978824;29;20439;-58
2023/01/31 03:18:34;;;;;;;1.23;1.03;;;4.00;99.90;;;;;;4978755;29;20487;-56
2023/01/31 03:21:09;;;;;;;4.50;1.53;;;3.90;99.90;;;;;;4979398;28;20416;-56
2023/01/31 03:23:38;;;;;;;1.30;0.90;;;3.90;99.90;;;;;;4979024;29;20467;-53
2023/01/31 03:26:07;;;;;;;6.10;1.53;;;3.80;99.90;;;;;;4979235;28;20463;-53
2023/01/31 03:28:39;;;;;;;1.10;0.70;;;3.80;99.90;;;;;;4979218;29;20436;-52
2023/01/31 03:31:12;;;;;;;3.53;1.13;;;3.80;99.90;;;;;;4979575;28;20434;-58
2023/01/31 03:33:42;;;;;;;6.37;1.60;;;3.80;99.90;;;;;;4979620;29;20428;-50
2023/01/31 03:36:21;;;;;;;2.90;1.40;;;3.80;99.90;;;;;;4979302;29;20468;-56
2023/01/31 03:38:54;;;;;;;1.13;0.80;;;3.70;99.90;;;;;;4979206;29;20432;-60
2023/01/31 03:41:27;;;;;;;8.83;1.53;;;3.70;99.90;;;;;;4979240;29;20459;-60
2023/01/31 03:44:09;;;;;;;10.47;4.77;;;3.70;99.90;;;;;;4979354;29;20487;-54
2023/01/31 03:46:40;;;;;;;2.10;1.30;;;3.70;99.90;;;;;;4979278;28;20427;-61
2023/01/31 03:49:14;;;;;;;7.57;2.90;;;3.60;99.90;;;;;;4979267;29;20424;-59
2023/01/31 03:51:48;;;;;;;10.17;1.37;;;3.70;99.90;;;;;;4979254;29;20416;-54
2023/01/31 03:54:19;;;;;;;13.33;1.53;;;3.70;99.90;;;;;;4979139;29;20459;-62
2023/01/31 03:56:52;;;;;;;5.40;2.70;;;3.70;99.90;;;;;;4979155;29;20466;-57
2023/01/31 03:59:24;;;;;;;11.10;2.03;;;3.70;99.90;;;;;;4978214;29;20487;-58
2023/01/31 04:01:54;;;;;;;14.40;1.53;;;3.70;99.90;;;;;;4978427;29;20428;-61
2023/01/31 04:04:26;;;;;;;10.13;1.60;;;3.70;99.90;;;;;;4979129;28;20428;-54
2023/01/31 04:06:54;;;;;;;10.70;1.00;;;3.70;99.90;;;;;;4982574;29;20487;-56
2023/01/31 04:09:21;;;;;;;3.63;1.03;;;3.70;99.90;;;;;;4982942;28;20447;-54
2023/01/31 04:11:49;;;;;;;8.07;1.20;;;3.70;99.90;;;;;;4982567;29;20462;-55
2023/01/31 04:14:19;;;;;;;6.57;2.03;;;3.60;99.90;;;;;;4982506;29;20432;-57
2023/01/31 04:16:46;;;;;;;5.30;1.73;;;3.70;99.90;;;;;;4982445;29;20435;-57
2023/01/31 04:19:13;;;;;;;4.37;1.30;;;3.60;99.90;;;;;;4982246;29;20451;-56
2023/01/31 04:21:40;;;;;;;1.30;0.77;;;3.60;99.90;;;;;;4982326;28;20443;-57
2023/01/31 04:24:09;;;;;;;4.30;2.10;;;3.60;99.90;;;;;;4982530;29;20460;-58
2023/01/31 04:26:36;;;;;;;5.10;0.93;;;3.60;99.90;;;;;;4982734;29;20450;-61
2023/01/31 04:29:03;;;;;;;13.93;2.40;;;3.60;99.90;;;;;;4982398;29;20483;-54
2023/01/31 04:31:33;;;;;;;11.13;2.00;;;3.60;99.90;;;;;;4982566;28;20473;-60
2023/01/31 04:34:00;;;;;;;5.83;1.77;;;3.60;99.90;;;;;;4982448;29;20444;-52
2023/01/31 04:36:27;;;;;;;10.77;1.33;;;3.70;99.90;;;;;;4981976;29;20451;-57
2023/01/31 04:38:54;;;;;;;7.80;1.37;;;3.60;99.90;;;;;;4982358;29;20443;-52
2023/01/31 04:41:22;;;;;;;2.37;0.97;;;3.60;99.90;;;;;;4982246;28;20432;-53
2023/01/31 04:43:49;;;;;;;8.90;1.67;;;3.50;99.90;;;;;;4981580;29;20495;-56
2023/01/31 04:46:16;;;;;;;2.37;1.23;;;3.60;99.90;;;;;;4981937;29;20467;-53
2023/01/31 04:48:43;;;;;;;7.17;2.03;;;3.50;99.90;;;;;;4981464;29;20460;-54
2023/01/31 04:53:50;;;;;;;3.30;1.00;;;3.50;99.90;;;;;;4978799;29;20444;-53
2023/01/31 04:56:18;;;;;;;8.43;2.60;;;3.50;99.90;;;;;;4981590;29;20431;-55
2023/01/31 04:58:47;;;;;;;4.10;2.37;;;3.40;99.90;;;;;;4981192;29;20448;-54
2023/01/31 05:01:18;;;;;;;9.97;2.40;;;3.50;99.90;;;;;;4981644;29;20462;-56
2023/01/31 05:03:45;;;;;;;10.03;3.37;;;3.50;99.90;;;;;;4980807;29;20510;-52
2023/01/31 05:06:14;;;;;;;19.23;1.80;;;3.50;99.90;;;;;;4981353;29;20494;-51
2023/01/31 05:08:41;;;;;;;14.50;1.77;;;3.50;99.90;;;;;;4981895;28;20451;-61
2023/01/31 05:11:08;;;;;;;8.47;1.40;;;3.50;99.90;;;;;;4981866;29;20448;-60
2023/01/31 05:13:37;;;;;;;5.23;0.73;;;3.60;99.90;;;;;;4981336;28;20467;-57
2023/01/31 05:16:17;;;;;;;8.93;1.83;;;3.60;99.90;;;;;;4980539;28;20427;-57
2023/01/31 05:18:46;;;;;;;6.40;1.20;;;3.60;99.90;;;;;;4981466;29;20440;-55
2023/01/31 05:21:12;;;;;;;5.27;1.40;;;3.60;99.90;;;;;;4981192;28;20471;-55
2023/01/31 05:23:39;;;;;;;3.17;1.20;;;3.60;99.90;;;;;;4980577;29;20447;-55
2023/01/31 05:26:06;;;;;;;2.70;1.03;;;3.60;99.90;;;;;;4980041;29;20485;-56
2023/01/31 05:28:33;;;;;;;6.30;1.47;;;3.60;99.90;;;;;;4980156;29;20483;-55
2023/01/31 05:31:06;;;;;;;10.77;1.20;;;3.60;99.90;;;;;;4979831;29;20476;-58
2023/01/31 05:33:38;;;;;;;6.80;2.50;;;3.60;99.90;;;;;;4979846;29;20448;-55
2023/01/31 05:36:05;;;;;;;6.17;1.30;;;3.70;99.90;;;;;;4979578;29;20429;-56
2023/01/31 05:38:36;;;;;;;9.50;2.17;;;3.70;99.90;;;;;;4979490;29;20428;-57
2023/01/31 05:41:05;;;;;;;9.63;1.73;;;3.80;99.90;;;;;;4979777;29;20491;-56
2023/01/31 05:43:33;;;;;;;7.20;1.67;;;3.80;99.90;;;;;;4979512;29;20479;-57
2023/01/31 05:46:00;;;;;;;1.47;1.30;;;3.80;99.90;;;;;;4979469;29;20503;-54
2023/01/31 05:48:27;;;;;;;2.17;1.00;;;3.80;99.90;;;;;;4980146;29;20483;-56
2023/01/31 05:50:57;;;;;;;5.10;1.20;;;3.90;99.90;;;;;;4980766;29;20444;-52
2023/01/31 05:53:24;;;;;;;0.90;0.70;;;3.90;99.90;;;;;;4980508;29;20448;-55
2023/01/31 05:55:51;;;;;;;3.60;1.57;;;4.00;99.90;;;;;;4980061;28;20454;-57
2023/01/31 05:58:18;;;;;;;4.73;1.50;;;4.00;99.90;;;;;;4979128;29;20436;-54
2023/01/31 06:00:48;;;;;;;4.70;1.10;;;4.00;99.90;;;;;;4979406;29;20468;-56
2023/01/31 06:03:15;;;;;;;5.73;1.63;;;4.00;99.90;;;;;;4980409;28;20455;-56
2023/01/31 06:05:42;;;;;;;3.73;1.67;;;4.00;99.90;;;;;;4980283;29;20487;-55
2023/01/31 06:08:11;;;;;;;2.90;1.97;;;4.10;99.90;;;;;;4980689;29;20487;-52
2023/01/31 06:10:38;;;;;;;2.03;1.30;;;4.10;99.90;;;;;;4980764;29;20479;-57
2023/01/31 06:13:06;;;;;;;10.27;2.47;;;4.10;99.90;;;;;;4980616;29;20436;-56
2023/01/31 06:15:33;;;;;;;13.03;2.87;;;4.10;99.90;;;;;;4979605;29;20444;-57
2023/01/31 06:17:59;;;;;;;1.57;1.20;;;4.10;99.90;;;;;;4979892;28;20448;-57
2023/01/31 06:20:27;;;;;;;2.73;1.63;;;4.20;99.90;;;;;;4979693;29;20482;-54
2023/01/31 06:22:54;;;;;;;6.90;1.30;;;4.20;99.90;;;;;;4978553;29;20487;-58
2023/01/31 06:25:23;;;;;;;1.33;0.80;;;4.20;99.90;;;;;;4978533;29;20492;-52
2023/01/31 06:27:49;;;;;;;1.60;1.20;;;4.20;99.90;;;;;;4977939;28;20447;-56
2023/01/31 06:30:17;;;;;;;3.70;1.13;;;4.20;99.90;;;;;;4978298;29;20455;-52
2023/01/31 06:32:47;;;;;;;3.80;1.30;;;4.20;99.90;;;;;;4978174;29;20467;-52
2023/01/31 06:35:16;;;;;;;6.20;2.50;;;4.20;99.90;;;;;;4978550;29;20474;-55
2023/01/31 06:37:42;;;;;;;3.50;2.20;;;4.30;99.90;;;;;;4978677;29;20499;-53
2023/01/31 06:40:11;;;;;;;3.37;1.80;;;4.20;99.90;;;;;;4978146;29;20459;-53
2023/01/31 06:42:42;;;;;;;11.77;2.40;;;4.20;99.90;;;;;;4978025;29;20447;-56
2023/01/31 06:45:10;;;;;;;8.83;1.90;;;4.30;99.90;;;;;;4978230;29;20499;-53
2023/01/31 06:47:37;;;;;;;7.47;2.37;;;4.30;99.90;;;;;;4977622;29;20452;-52
2023/01/31 06:50:04;;;;;;;2.30;0.97;;;4.30;99.90;;;;;;4978305;29;20499;-53
2023/01/31 06:52:31;;;;;;;8.23;2.13;;;4.30;99.90;;;;;;4978004;29;20436;-55
2023/01/31 06:54:58;;;;;;;1.70;1.20;;;4.20;99.90;;;;;;4978534;29;20458;-56
2023/01/31 06:57:24;;;;;;;2.87;1.30;;;4.30;99.90;;;;;;4977955;29;20484;-58
2023/01/31 06:59:54;;;;;;;7.90;1.63;;;4.30;99.90;;;;;;4977783;29;20440;-54
2023/01/31 07:02:21;;;;;;;6.50;1.70;;;4.30;99.90;;;;;;4977847;29;20541;-57
2023/01/31 07:04:48;;;;;;;4.23;1.10;;;4.30;99.90;;;;;;4978046;29;20456;-57
2023/01/31 07:07:18;;;;;;;11.73;2.70;;;4.30;99.90;;;;;;4978117;29;20519;-57
2023/01/31 07:09:45;;;;;;;3.57;1.47;;;4.30;99.90;;;;;;4977385;29;20451;-55
2023/01/31 07:12:13;;;;;;;11.53;1.90;;;4.30;99.90;;;;;;4977701;29;20463;-55
2023/01/31 07:14:41;;;;;;;3.33;1.10;;;4.30;99.90;;;;;;4978037;29;20502;-56
2023/01/31 07:17:09;;;;;;;8.10;2.07;;;4.40;99.90;;;;;;4977711;29;20432;-55
2023/01/31 07:19:39;;;;;;;12.67;2.13;;;4.30;99.90;;;;;;4977998;29;20483;-56
2023/01/31 07:22:06;;;;;;;2.17;1.60;;;4.30;99.90;;;;;;4978079;29;20456;-53
2023/01/31 07:24:34;;;;;;;7.97;1.87;;;4.30;99.90;;;;;;4977542;29;20467;-55
2023/01/31 07:27:03;;;;;;;6.73;2.03;;;4.40;99.90;;;;;;4977619;29;20530;-56
2023/01/31 07:29:30;;;;;;;2.87;2.47;;;4.40;99.90;;;;;;4977441;29;20456;-55
2023/01/31 07:31:57;;;;;;;3.60;1.30;;;4.40;99.90;;;;;;4977693;29;20476;-51
2023/01/31 07:34:25;;;;;;;5.60;1.80;;;4.40;99.90;;;;;;4978093;29;20499;-50
2023/01/31 07:36:52;;;;;;;4.07;1.43;;;4.40;99.90;;;;;;4978515;29;20472;-53
2023/01/31 07:39:19;;;;;;;4.57;2.70;;;4.40;99.90;;;;;;4977291;28;20428;-52
2023/01/31 07:41:46;;;;;;;3.27;1.60;;;4.40;99.90;;;;;;4977513;29;20483;-56
2023/01/31 07:44:13;;;;;;;5.00;1.73;;;4.40;99.90;;;;;;4977239;29;20452;-53
2023/01/31 07:46:42;;;;;;;3.07;1.30;;;4.40;99.90;;;;;;4976663;29;20475;-56
2023/01/31 07:49:10;;;;;;;2.90;1.77;;;4.50;99.90;;;;;;4976836;29;20488;-50
2023/01/31 07:51:38;;;;;;;7.30;2.60;;;4.50;99.90;;;;;;4977134;29;20472;-60
2023/01/31 07:54:05;;;;;;;16.27;2.57;;;4.50;99.90;;;;;;4976773;29;20474;-53
2023/01/31 07:56:32;;;;;;;7.27;1.80;;;4.50;99.90;;;;;;4976925;29;20440;-55
2023/01/31 07:58:59;;;;;;;4.57;1.30;;;4.50;99.90;;;;;;4976727;29;20455;-56
2023/01/31 08:04:13;;;;;;;0.90;0.70;;;4.60;99.90;;;;;;4977445;29;20411;-55
2023/01/31 08:06:44;;;;;;;5.03;1.83;;;4.60;99.90;;;;;;4977089;29;20992;-55
2023/01/31 08:09:11;;;;;;;5.67;1.90;;;4.60;99.90;;;;;;4977359;29;20444;-55
2023/01/31 08:11:38;;;;;;;4.17;1.20;;;4.60;99.90;;;;;;4977185;29;20491;-55
2023/01/31 08:14:07;;;;;;;6.43;1.63;;;4.60;99.90;;;;;;4977207;29;20447;-55
2023/01/31 08:16:35;;;;;;;4.80;1.30;;;4.60;99.90;;;;;;4977718;29;20420;-54
2023/01/31 08:19:05;;;;;;;4.00;1.17;;;4.70;99.90;;;;;;4977702;29;20503;-56
2023/01/31 08:21:32;;;;;;;10.10;1.17;;;4.70;99.90;;;;;;4977405;29;20428;-52
2023/01/31 08:24:00;;;;;;;2.40;1.50;;;4.70;99.90;;;;;;4977234;29;20463;-55
2023/01/31 08:26:27;;;;;;;7.93;2.10;;;4.80;99.90;;;;;;4976894;29;20568;-55
2023/01/31 08:28:54;;;;;;;7.47;1.47;;;4.80;99.90;;;;;;4977502;29;20458;-56
2023/01/31 08:31:23;;;;;;;2.53;1.30;;;4.80;99.90;;;;;;4977133;29;20463;-53
2023/01/31 08:33:52;;;;;;;3.77;2.00;;;4.80;99.90;;;;;;4977053;29;20471;-57
2023/01/31 08:36:20;;;;;;;3.80;1.83;;;4.80;99.90;;;;;;4977359;29;20487;-56
2023/01/31 08:38:48;;;;;;;4.00;1.40;;;4.80;99.90;;;;;;4977664;28;20448;-56
2023/01/31 08:41:17;;;;;;;3.50;1.50;;;4.80;99.90;;;;;;4977103;29;20432;-52
2023/01/31 08:43:48;;;;;;;4.20;1.90;;;4.80;99.90;;;;;;4977555;29;20499;-53
2023/01/31 08:46:15;;;;;;;2.30;1.30;;;4.80;99.90;;;;;;4976800;29;20472;-56
2023/01/31 08:48:44;;;;;;;10.13;1.70;;;4.80;99.90;;;;;;4976753;29;20467;-56
2023/01/31 08:51:13;;;;;;;2.40;1.10;;;4.90;99.90;;;;;;4977864;28;20420;-54
2023/01/31 08:53:42;;;;;;;2.93;1.27;;;4.80;99.90;;;;;;4979791;29;20487;-54
2023/01/31 08:56:09;;;;;;;9.20;3.03;;;4.80;99.90;;;;;;4980036;29;20425;-55
2023/01/31 08:58:40;;;;;;;2.40;1.30;;;4.80;99.90;;;;;;4979830;29;20475;-53
2023/01/31 09:01:09;;;;;;;3.30;1.33;;;4.80;99.90;;;;;;4979843;29;20499;-54
2023/01/31 09:03:35;;;;;;;5.33;1.43;;;4.90;99.90;;;;;;4979935;29;20463;-54
2023/01/31 09:06:05;;;;;;;7.30;1.40;;;4.90;99.90;;;;;;4979882;29;20503;-50
2023/01/31 09:08:32;;;;;;;5.40;2.30;;;4.90;99.90;;;;;;4980299;29;20427;-55
2023/01/31 09:11:00;;;;;;;9.23;1.77;;;4.90;99.90;;;;;;4980087;29;20455;-53
2023/01/31 09:13:28;;;;;;;6.00;2.50;;;4.90;99.90;;;;;;4979340;29;20535;-55
2023/01/31 09:16:00;;;;;;;8.77;3.10;;;4.90;99.90;;;;;;4980749;29;20452;-57
2023/01/31 09:18:30;;;;;;;9.10;1.97;;;4.90;99.90;;;;;;4980521;29;20463;-52
2023/01/31 09:20:57;;;;;;;4.10;1.40;;;5.00;99.90;;;;;;4980672;28;20436;-55
2023/01/31 09:23:24;;;;;;;9.53;3.33;;;5.00;99.90;;;;;;4980916;29;20460;-50
2023/01/31 09:25:54;;;;;;;6.10;1.77;;;5.00;99.90;;;;;;4980476;29;20451;-55
2023/01/31 09:28:21;;;;;;;5.63;1.53;;;5.10;99.90;;;;;;4980086;29;20483;-54
2023/01/31 09:30:52;;;;;;;9.23;1.93;;;5.10;99.90;;;;;;4979032;29;20475;-52
2023/01/31 09:33:21;;;;;;;6.13;2.90;;;5.20;99.90;;;;;;4979333;29;20473;-50
2023/01/31 09:35:56;;;;;;;11.73;3.40;;;5.20;99.90;;;;;;4979934;29;20512;-51
2023/01/31 09:38:23;;;;;;;5.30;2.40;;;5.20;99.90;;;;;;4980060;29;20439;-52
2023/01/31 09:40:51;;;;;;;7.33;2.97;;;5.30;99.90;;;;;;4979512;29;20476;-57
2023/01/31 09:43:22;;;;;;;3.53;1.93;;;5.30;99.90;;;;;;4979280;29;20480;-54
2023/01/31 09:45:50;;;;;;;4.40;1.63;;;5.30;99.90;;;;;;4978856;29;20436;-50
2023/01/31 09:48:28;;;;;;;7.93;2.30;;;5.40;99.90;;;;;;4978889;29;20483;-56
2023/01/31 09:50:58;;;;;;;3.43;1.43;;;5.40;99.90;;;;;;4979387;29;20465;-54
2023/01/31 09:53:32;;;;;;;4.60;1.63;;;5.50;99.90;;;;;;4978896;29;20467;-53
2023/01/31 09:56:15;;;;;;;3.53;2.00;;;5.40;99.90;;;;;;4979451;29;20472;-52
2023/01/31 09:58:51;;;;;;;10.40;1.77;;;5.50;99.90;;;;;;4979235;29;20455;-51
2023/01/31 10:01:26;;;;;;;10.33;3.10;;;5.60;99.90;;;;;;4979645;29;20495;-51
2023/01/31 10:04:09;;;;;;;5.00;2.40;;;5.60;99.90;;;;;;4978821;28;20450;-51
2023/01/31 10:06:43;;;;;;;16.90;2.40;;;5.70;99.90;;;;;;4979255;29;20468;-52
2023/01/31 10:09:17;;;;;;;7.07;2.10;;;5.80;99.90;;;;;;4978968;29;20436;-52
2023/01/31 10:11:47;;;;;;;4.13;2.30;;;5.80;99.90;;;;;;4979199;29;20420;-52
2023/01/31 10:14:26;;;;;;;6.50;1.90;;;5.80;99.90;;;;;;4979016;29;20487;-57
2023/01/31 10:17:03;;;;;;;7.20;1.90;;;5.80;99.90;;;;;;4978246;29;20420;-54
2023/01/31 10:19:39;;;;;;;10.90;2.50;;;5.90;99.90;;;;;;4979165;29;20467;-55
2023/01/31 10:22:10;;;;;;;7.70;2.10;;;5.90;99.90;;;;;;4978886;29;20435;-51
2023/01/31 10:24:40;;;;;;;6.10;1.63;;;6.00;99.90;;;;;;4979369;29;20424;-53
2023/01/31 10:27:14;;;;;;;8.37;2.03;;;5.90;99.90;;;;;;4979176;29;20456;-54
2023/01/31 10:29:47;;;;;;;8.57;2.17;;;6.00;99.90;;;;;;4979358;29;20519;-51
2023/01/31 10:32:26;;;;;;;8.20;1.40;;;6.00;99.90;;;;;;4978497;29;20480;-54
2023/01/31 10:34:59;;;;;;;11.77;2.60;;;6.00;99.90;;;;;;4977918;29;20432;-52
2023/01/31 10:37:32;;;;;;;3.57;1.77;;;5.80;99.90;;;;;;4978143;29;20424;-53
2023/01/31 10:40:02;;;;;;;13.37;5.33;;;5.90;99.90;;;;;;4978013;29;20877;-50
2023/01/31 10:42:34;;;;;;;10.80;1.70;;;5.90;99.90;;;;;;4978506;29;20479;-54
2023/01/31 10:45:10;;;;;;;9.73;1.90;;;5.80;99.90;;;;;;4978048;29;20799;-52
2023/01/31 10:47:40;;;;;;;12.33;2.17;;;5.80;99.90;;;;;;4977843;29;20460;-55
2023/01/31 10:50:17;;;;;;;4.33;1.50;;;5.70;99.90;;;;;;4978015;29;20471;-54
2023/01/31 10:53:09;;;;;;;5.23;1.70;;;5.80;99.90;;;;;;4978160;29;20454;-54
2023/01/31 10:56:00;;;;;;;5.47;2.20;;;5.80;99.90;;;;;;4977982;29;20424;-54
2023/01/31 10:58:27;;;;;;;5.67;1.70;;;5.80;99.90;;;;;;4977512;29;20436;-57
2023/01/31 11:00:57;;;;;;;5.73;2.07;;;5.80;99.90;;;;;;4978018;29;20440;-49
2023/01/31 11:03:26;;;;;;;13.87;2.80;;;5.80;99.90;;;;;;4978093;29;20555;-52
2023/01/31 11:05:56;;;;;;;9.80;2.63;;;5.90;99.90;;;;;;4977585;29;20447;-55
2023/01/31 11:08:31;;;;;;;6.47;1.80;;;6.00;99.90;;;;;;4977799;29;20520;-54
2023/01/31 11:11:05;;;;;;;5.73;1.80;;;5.90;99.90;;;;;;4978166;29;20435;-55
2023/01/31 11:13:32;;;;;;;5.20;2.20;;;6.00;99.90;;;;;;4977397;28;20470;-56
2023/01/31 11:16:03;;;;;;;3.97;3.10;;;6.00;99.90;;;;;;4977401;29;20447;-52
2023/01/31 11:18:33;;;;;;;12.90;2.67;;;6.00;99.90;;;;;;4978129;29;20447;-51
2023/01/31 11:21:03;;;;;;;5.40;1.60;;;6.10;99.90;;;;;;4978455;29;20476;-53
2023/01/31 11:23:33;;;;;;;7.07;2.73;;;6.10;99.90;;;;;;4978572;29;20428;-54
2023/01/31 11:26:01;;;;;;;7.40;2.97;;;6.10;99.90;;;;;;4978300;29;20478;-55
2023/01/31 11:28:35;;;;;;;9.73;2.50;;;6.20;99.90;;;;;;4978063;29;20468;-55
2023/01/31 11:31:06;;;;;;;2.63;1.10;;;6.20;99.90;;;;;;4978204;29;20478;-55
2023/01/31 11:33:42;;;;;;;16.33;3.00;;;6.20;99.90;;;;;;4977843;29;20436;-53
2023/01/31 11:36:13;;;;;;;5.03;2.47;;;6.10;99.90;;;;;;4977551;29;20470;-56
2023/01/31 11:38:40;;;;;;;7.67;2.77;;;6.10;99.90;;;;;;4977420;29;20476;-53
2023/01/31 11:41:32;;;;;;;3.90;2.93;;;6.10;99.90;;;;;;4977921;29;20463;-49
2023/01/31 11:44:14;;;;;;;6.07;3.00;;;6.10;99.90;;;;;;4977685;29;20440;-54
2023/01/31 11:46:50;;;;;;;13.83;3.67;;;6.00;99.90;;;;;;4977395;29;20439;-54
2023/01/31 11:49:26;;;;;;;10.77;3.00;;;6.00;99.90;;;;;;4977847;29;20428;-50
2023/01/31 11:51:58;;;;;;;15.93;3.50;;;6.00;99.90;;;;;;4977203;29;20440;-51
2023/01/31 11:54:29;;;;;;;6.93;2.50;;;6.00;99.90;;;;;;4977045;29;20428;-53
2023/01/31 11:56:57;;;;;;;9.07;3.47;;;6.00;99.90;;;;;;4977284;29;20497;-54
2023/01/31 11:59:30;;;;;;;6.10;3.07;;;6.00;99.90;;;;;;4977318;29;20490;-54
2023/01/31 12:02:00;;;;;;;7.80;2.97;;;6.00;99.90;;;;;;4977401;29;20435;-56
2023/01/31 12:04:32;;;;;;;12.60;2.83;;;6.00;99.90;;;;;;4977946;29;20477;-51
2023/01/31 12:07:03;;;;;;;3.63;2.10;;;6.10;99.90;;;;;;4977448;29;20462;-55
2023/01/31 12:09:45;;;;;;;4.60;2.20;;;6.10;99.90;;;;;;4978123;29;20474;-50
2023/01/31 12:12:34;;;;;;;8.63;2.90;;;6.10;99.90;;;;;;4975539;29;20483;-52
2023/01/31 12:15:13;;;;;;;11.83;3.13;;;6.10;99.90;;;;;;4977471;29;20467;-56
2023/01/31 12:17:45;;;;;;;12.17;2.30;;;6.10;99.90;;;;;;4977447;29;20455;-54
2023/01/31 12:20:22;;;;;;;12.27;3.70;;;6.10;99.90;;;;;;4977775;29;20463;-51
2023/01/31 12:22:55;;;;;;;24.37;3.43;;;6.10;99.90;;;;;;4977302;29;20435;-53
2023/01/31 12:25:28;;;;;;;5.77;2.93;;;6.10;99.90;;;;;;4977938;28;20439;-53
2023/01/31 12:28:06;;;;;;;9.47;3.40;;;6.10;99.90;;;;;;4981123;29;20473;-54
2023/01/31 12:31:00;;;;;;;9.90;2.77;;;6.10;99.90;;;;;;4981069;29;20435;-52
2023/01/31 12:33:39;;;;;;;10.60;2.93;;;6.10;99.90;;;;;;4980628;29;20463;-53
2023/01/31 12:36:22;;;;;;;11.70;3.00;;;6.10;99.90;;;;;;4980614;29;20428;-52
2023/01/31 12:39:14;;;;;;;3.93;2.30;;;6.00;99.90;;;;;;4980468;29;20424;-49
2023/01/31 12:41:51;;;;;;;10.70;2.40;;;5.90;99.90;;;;;;4980076;29;20462;-52
2023/01/31 12:44:34;;;;;;;19.57;4.53;;;5.90;99.90;;;;;;4980976;29;20468;-53
2023/01/31 12:47:25;;;;;;;9.27;2.83;;;5.90;99.90;;;;;;4981008;29;20428;-49
2023/01/31 12:50:02;;;;;;;7.80;2.77;;;5.90;99.90;;;;;;4981083;29;20503;-55
2023/01/31 12:52:42;;;;;;;10.20;2.93;;;5.80;99.90;;;;;;4980991;29;20412;-54
2023/01/31 12:55:26;;;;;;;8.20;2.83;;;5.80;99.90;;;;;;4979951;29;20511;-52
2023/01/31 12:58:06;;;;;;;6.07;3.47;;;5.70;99.90;;;;;;4980289;29;20447;-52
2023/01/31 13:00:40;;;;;;;14.40;2.97;;;5.50;99.90;;;;;;4980392;29;20499;-52
2023/01/31 13:03:34;;;;;;;10.00;4.77;;;5.50;99.90;;;;;;4980311;29;20452;-53
2023/01/31 13:06:06;;;;;;;15.70;3.77;;;5.40;99.90;;;;;;4979840;29;20482;-54
2023/01/31 13:08:37;;;;;;;14.03;4.53;;;5.40;99.90;;;;;;4980105;29;20463;-50
2023/01/31 13:11:09;;;;;;;5.30;3.47;;;5.40;99.90;;;;;;4979948;29;20467;-51
2023/01/31 13:13:42;;;;;;;3.80;2.90;;;5.40;99.90;;;;;;4979616;29;20444;-53
2023/01/31 13:16:17;;;;;;;7.10;3.03;;;5.40;99.90;;;;;;4979596;29;20475;-49
2023/01/31 13:18:47;;;;;;;14.03;4.40;;;5.30;99.90;;;;;;4980431;29;20439;-56
2023/01/31 13:21:20;;;;;;;12.93;3.80;;;5.40;99.90;;;;;;4979998;29;20428;-52
2023/01/31 13:23:51;;;;;;;5.97;3.10;;;5.40;99.90;;;;;;4979782;29;20416;-55
2023/01/31 13:26:28;;;;;;;5.03;3.50;;;5.40;99.90;;;;;;4979835;29;20424;-55
2023/01/31 13:29:01;;;;;;;11.97;4.27;;;5.30;99.90;;;;;;4979135;29;20491;-55
2023/01/31 13:31:30;;;;;;;5.77;3.77;;;5.30;99.90;;;;;;4979482;29;20467;-53